Time;durP1;ratioP1;P1;durP2;ratioP2;P2;SDS_P1;SDS_P2;PMS_P1;PMS_P2;Temp;Humidity;BMP_temperature;BMP_pressure;BME280_temperature;BME280_humidity;BME280_pressure;Samples;Min_cycle;Max_cycle;Signal;HPM_P1;HPM_P2
2022/08/21 00:00:41;;;;;;;6.32;2.67;;;;;;;14.37;100.00;101780.25;5050128;28;20147;-74
2022/08/21 00:03:09;;;;;;;11.18;2.40;;;;;;;14.35;100.00;101778.72;5051072;28;20029;-73
2022/08/21 00:05:39;;;;;;;15.30;2.90;;;;;;;14.32;100.00;101782.50;5051395;28;20025;-76
2022/08/21 00:08:08;;;;;;;7.35;2.60;;;;;;;14.29;100.00;101780.13;5051189;28;20025;-75
2022/08/21 00:10:34;;;;;;;12.98;2.65;;;;;;;14.24;100.00;101775.19;5049519;28;20060;-74
2022/08/21 00:13:04;;;;;;;5.75;2.38;;;;;;;14.22;100.00;101773.63;5049855;28;20025;-75
2022/08/21 00:15:31;;;;;;;7.87;2.73;;;;;;;14.19;100.00;101768.56;5050905;28;20025;-74
2022/08/21 00:17:58;;;;;;;11.85;2.38;;;;;;;14.17;100.00;101767.84;5051173;28;20259;-74
2022/08/21 00:20:25;;;;;;;9.43;2.53;;;;;;;14.17;100.00;101768.69;5050756;28;20037;-74
2022/08/21 00:22:51;;;;;;;9.75;2.80;;;;;;;14.22;100.00;101770.94;5051102;28;20089;-74
2022/08/21 00:25:18;;;;;;;8.10;2.42;;;;;;;14.24;100.00;101769.84;5049542;28;20033;-74
2022/08/21 00:27:44;;;;;;;9.85;2.63;;;;;;;14.27;100.00;101763.31;5050758;28;20468;-75
2022/08/21 00:30:11;;;;;;;8.77;2.30;;;;;;;14.27;100.00;101768.69;5050936;28;20044;-74
2022/08/21 00:32:38;;;;;;;11.82;2.75;;;;;;;14.29;100.00;101772.09;5050654;28;20066;-75
2022/08/21 00:35:07;;;;;;;7.55;2.53;;;;;;;14.29;100.00;101764.06;5050102;28;20312;-74
2022/08/21 00:37:33;;;;;;;12.98;2.28;;;;;;;14.27;100.00;101771.34;5050560;28;20101;-74
2022/08/21 00:39:58;;;;;;;10.38;2.63;;;;;;;14.26;100.00;101765.16;5050441;28;20356;-74
2022/08/21 00:42:24;;;;;;;15.43;2.83;;;;;;;14.27;100.00;101768.69;5050278;28;20021;-75
2022/08/21 00:44:50;;;;;;;9.88;2.33;;;;;;;14.25;100.00;101770.66;5048997;28;20052;-73
2022/08/21 00:47:17;;;;;;;10.45;2.40;;;;;;;14.24;100.00;101760.94;5048786;28;20135;-74
2022/08/21 00:49:43;;;;;;;11.35;3.22;;;;;;;14.20;100.00;101762.22;5048622;28;20055;-75
2022/08/21 00:52:13;;;;;;;8.45;2.15;;;;;;;14.15;100.00;101761.78;5050946;28;20030;-74
2022/08/21 00:54:40;;;;;;;6.57;2.55;;;;;;;14.11;100.00;101759.38;5050859;28;20032;-74
2022/08/21 00:57:13;;;;;;;9.98;2.60;;;;;;;14.07;100.00;101762.50;5051108;28;20501;-73
2022/08/21 00:59:40;;;;;;;10.65;2.53;;;;;;;14.06;100.00;101755.44;5050651;28;20036;-75
2022/08/21 01:02:07;;;;;;;10.23;2.42;;;;;;;14.04;100.00;101758.25;5048468;28;20028;-75
2022/08/21 01:04:33;;;;;;;12.25;2.80;;;;;;;14.02;100.00;101756.72;5050572;28;20029;-73
2022/08/21 01:07:01;;;;;;;5.88;2.55;;;;;;;14.00;100.00;101751.50;5050473;28;20028;-75
2022/08/21 01:09:27;;;;;;;7.72;2.17;;;;;;;13.98;100.00;101747.28;5050250;28;20460;-75
2022/08/21 01:11:52;;;;;;;7.10;2.33;;;;;;;13.97;100.00;101748.25;5048716;28;20068;-74
2022/08/21 01:14:19;;;;;;;9.43;2.30;;;;;;;13.93;100.00;101745.84;5049660;28;20029;-75
2022/08/21 01:16:47;;;;;;;8.07;2.50;;;;;;;13.92;100.00;101743.31;5050402;28;20112;-74
2022/08/21 01:19:14;;;;;;;14.38;2.83;;;;;;;13.91;100.00;101750.50;5049667;28;20407;-74
2022/08/21 01:21:40;;;;;;;13.95;2.90;;;;;;;13.90;100.00;101747.97;5049959;28;20036;-75
2022/08/21 01:24:06;;;;;;;13.80;3.13;;;;;;;13.85;100.00;101745.72;5050369;28;20035;-74
2022/08/21 01:26:36;;;;;;;14.07;2.55;;;;;;;13.84;100.00;101746.69;5049911;28;20029;-74
2022/08/21 01:29:13;;;;;;;10.27;2.60;;;;;;;13.84;100.00;101754.72;5050170;28;20362;-74
2022/08/21 01:31:38;;;;;;;4.50;2.50;;;;;;;13.82;100.00;101748.63;5050087;28;20060;-74
2022/08/21 01:34:04;;;;;;;13.02;2.97;;;;;;;13.79;100.00;101750.75;5050025;28;20469;-74
2022/08/21 01:36:31;;;;;;;11.95;2.70;;;;;;;13.77;100.00;101745.56;5048697;28;20342;-74
2022/08/21 01:38:56;;;;;;;8.38;2.42;;;;;;;13.72;100.00;101754.00;5049712;28;20474;-75
2022/08/21 01:41:22;;;;;;;8.98;2.45;;;;;;;13.69;100.00;101753.41;5049929;28;20029;-74
2022/08/21 01:43:47;;;;;;;8.00;2.35;;;;;;;13.72;100.00;101745.13;5049719;28;20044;-74
2022/08/21 01:46:13;;;;;;;11.18;2.67;;;;;;;13.72;100.00;101742.47;5049458;28;20041;-74
2022/08/21 01:48:39;;;;;;;8.80;2.50;;;;;;;13.76;100.00;101743.84;5049441;28;20029;-74
2022/08/21 01:51:06;;;;;;;6.13;2.95;;;;;;;13.73;100.00;101747.66;5049974;28;20033;-74
2022/08/21 01:53:35;;;;;;;7.18;2.30;;;;;;;13.72;100.00;101751.31;5048084;28;20025;-75
2022/08/21 01:56:01;;;;;;;7.25;2.65;;;;;;;13.70;100.00;101745.28;5049624;28;20044;-74
2022/08/21 01:58:26;;;;;;;11.45;3.13;;;;;;;13.69;100.00;101740.91;5050006;28;20400;-74
2022/08/21 02:00:52;;;;;;;8.98;2.45;;;;;;;13.67;100.00;101731.31;5047798;28;20036;-76
2022/08/21 02:03:17;;;;;;;10.80;3.08;;;;;;;13.63;100.00;101732.56;5049941;28;20032;-74
2022/08/21 02:05:42;;;;;;;6.40;2.20;;;;;;;13.60;100.00;101732.84;5049349;28;20025;-75
2022/08/21 02:08:08;;;;;;;9.30;2.60;;;;;;;13.59;100.00;101729.31;5049765;28;20061;-76
2022/08/21 02:10:33;;;;;;;11.48;2.60;;;;;;;13.58;100.00;101730.31;5049642;28;20427;-74
2022/08/21 02:13:00;;;;;;;10.70;2.53;;;;;;;13.56;100.00;101726.94;5050871;28;20035;-73
2022/08/21 02:15:27;;;;;;;11.65;2.95;;;;;;;13.52;100.00;101723.66;5053425;28;20029;-75
2022/08/21 02:17:55;;;;;;;8.13;2.40;;;;;;;13.52;100.00;101730.84;5053694;28;20039;-75
2022/08/21 02:20:25;;;;;;;6.80;2.50;;;;;;;13.49;100.00;101723.09;5053247;28;20107;-74
2022/08/21 02:22:51;;;;;;;7.85;2.15;;;;;;;13.47;100.00;101723.25;5053488;28;20029;-74
2022/08/21 02:25:17;;;;;;;8.27;2.33;;;;;;;13.48;100.00;101732.97;5051759;28;20051;-73
2022/08/21 02:27:44;;;;;;;12.85;3.53;;;;;;;13.49;100.00;101723.09;5053060;28;20104;-75
2022/08/21 02:30:29;;;;;;;7.55;2.60;;;;;;;13.43;100.00;101727.16;5053145;28;20029;-75
2022/08/21 02:32:55;;;;;;;9.50;2.70;;;;;;;13.41;100.00;101723.78;5052883;28;20036;-75
2022/08/21 02:35:21;;;;;;;7.75;2.00;;;;;;;13.41;100.00;101726.47;5053082;28;20035;-74
2022/08/21 02:37:49;;;;;;;12.27;2.28;;;;;;;13.37;100.00;101717.84;5051716;28;20039;-75
2022/08/21 02:40:17;;;;;;;4.20;1.90;;;;;;;13.37;100.00;101722.38;5053103;28;20029;-74
2022/08/21 02:42:43;;;;;;;6.85;2.45;;;;;;;13.35;100.00;101721.66;5053274;28;20032;-74
2022/08/21 02:45:09;;;;;;;9.68;2.85;;;;;;;13.33;100.00;101718.22;5053231;28;20036;-74
2022/08/21 02:47:35;;;;;;;8.45;2.63;;;;;;;13.30;100.00;101716.69;5053151;28;20047;-74
2022/08/21 02:50:00;;;;;;;14.75;2.60;;;;;;;13.29;100.00;101719.50;5052748;28;20032;-74
2022/08/21 02:52:25;;;;;;;6.25;2.20;;;;;;;13.26;100.00;101711.75;5052381;28;20024;-75
2022/08/21 02:54:51;;;;;;;12.13;3.10;;;;;;;13.26;100.00;101723.28;5052722;28;20136;-75
2022/08/21 02:57:16;;;;;;;9.40;2.67;;;;;;;13.24;100.00;101717.22;5052905;28;20021;-74
2022/08/21 02:59:41;;;;;;;13.38;3.22;;;;;;;13.25;100.00;101718.91;5052656;28;20036;-74
2022/08/21 03:02:07;;;;;;;13.98;3.92;;;;;;;13.26;100.00;101714.44;5052765;28;20075;-75
2022/08/21 03:04:33;;;;;;;9.40;2.60;;;;;;;13.21;100.00;101717.47;5052414;28;20029;-74
2022/08/21 03:06:58;;;;;;;7.13;2.47;;;;;;;13.19;100.00;101712.28;5052445;28;20033;-76
2022/08/21 03:09:23;;;;;;;10.05;3.00;;;;;;;13.18;100.00;101715.09;5052481;28;20137;-75
2022/08/21 03:11:51;;;;;;;12.25;3.40;;;;;;;13.15;100.00;101710.00;5051966;28;20021;-75
2022/08/21 03:14:17;;;;;;;10.38;3.00;;;;;;;13.13;100.00;101702.13;5052790;28;20102;-73
2022/08/21 03:16:42;;;;;;;18.65;3.85;;;;;;;13.15;100.00;101699.31;5052334;28;20446;-75
2022/08/21 03:19:08;;;;;;;8.75;2.95;;;;;;;13.15;100.00;101702.88;5052322;28;20048;-75
2022/08/21 03:21:33;;;;;;;9.75;3.30;;;;;;;13.18;100.00;101693.72;5052215;28;20367;-74
2022/08/21 03:23:58;;;;;;;9.68;2.95;;;;;;;13.18;100.00;101701.72;5051828;28;20036;-74
2022/08/21 03:26:24;;;;;;;10.85;3.17;;;;;;;13.16;100.00;101691.19;5052120;28;20067;-74
2022/08/21 03:28:50;;;;;;;4.90;2.60;;;;;;;13.15;100.00;101691.31;5052277;28;20039;-75
2022/08/21 03:31:17;;;;;;;18.23;3.38;;;;;;;13.12;100.00;101697.78;5050363;28;20036;-74
2022/08/21 03:33:43;;;;;;;9.93;2.70;;;;;;;13.13;100.00;101693.28;5052152;28;20025;-74
2022/08/21 03:36:10;;;;;;;12.52;3.05;;;;;;;13.10;100.00;101686.38;5051983;28;20078;-75
2022/08/21 03:38:37;;;;;;;16.25;3.97;;;;;;;13.11;100.00;101680.06;5051321;28;20098;-74
2022/08/21 03:41:04;;;;;;;13.15;3.75;;;;;;;13.13;100.00;101687.94;5051765;28;20139;-74
2022/08/21 03:43:30;;;;;;;12.48;3.85;;;;;;;13.15;100.00;101686.84;5051246;28;20028;-74
2022/08/21 03:45:55;;;;;;;20.08;4.07;;;;;;;13.18;100.00;101685.69;5051279;28;20148;-75
2022/08/21 03:48:21;;;;;;;9.88;3.20;;;;;;;13.19;100.00;101682.88;5051695;28;20112;-74
2022/08/21 03:50:49;;;;;;;10.77;4.20;;;;;;;13.20;100.00;101683.75;5051448;28;20419;-75
2022/08/21 03:53:16;;;;;;;9.32;3.00;;;;;;;13.22;100.00;101692.47;5051584;28;20029;-75
2022/08/21 03:55:41;;;;;;;10.75;3.13;;;;;;;13.24;100.00;101695.84;5051475;28;20128;-75
2022/08/21 03:58:07;;;;;;;10.85;3.10;;;;;;;13.20;100.00;101687.25;5051223;28;20363;-75
2022/08/21 04:00:33;;;;;;;9.48;3.20;;;;;;;13.19;100.00;101687.41;5051598;28;20029;-75
2022/08/21 04:02:59;;;;;;;10.27;3.10;;;;;;;13.16;100.00;101676.97;5051276;28;20111;-75
2022/08/21 04:05:27;;;;;;;8.55;2.90;;;;;;;13.11;100.00;101693.41;5050170;28;20419;-74
2022/08/21 04:07:54;;;;;;;11.43;3.60;;;;;;;13.09;100.00;101684.66;5051667;28;20121;-75
2022/08/21 04:10:20;;;;;;;13.10;3.53;;;;;;;13.08;100.00;101691.03;5051208;28;20100;-74
2022/08/21 04:12:45;;;;;;;8.60;3.15;;;;;;;13.03;100.00;101688.75;5051582;28;20123;-74
2022/08/21 04:15:10;;;;;;;9.82;4.03;;;;;;;13.02;100.00;101691.56;5050938;28;20039;-74
2022/08/21 04:17:36;;;;;;;14.27;4.60;;;;;;;13.03;100.00;101690.56;5049423;28;20081;-74
2022/08/21 04:20:01;;;;;;;13.35;4.22;;;;;;;13.00;100.00;101682.81;5050941;28;20112;-75
2022/08/21 04:22:27;;;;;;;10.25;3.65;;;;;;;12.98;100.00;101698.16;5050960;28;20380;-74
2022/08/21 04:24:52;;;;;;;13.18;4.32;;;;;;;12.97;100.00;101694.63;5052003;28;20041;-75
2022/08/21 04:27:17;;;;;;;14.82;4.82;;;;;;;12.94;100.00;101696.72;5051607;28;20387;-74
2022/08/21 04:29:43;;;;;;;10.93;3.65;;;;;;;12.92;100.00;101704.03;5049133;28;20438;-73
2022/08/21 04:32:08;;;;;;;10.40;3.70;;;;;;;12.89;100.00;101702.47;5050974;28;20331;-74
2022/08/21 04:34:33;;;;;;;7.82;3.40;;;;;;;12.90;100.00;101711.31;5049844;28;20055;-74
2022/08/21 04:36:59;;;;;;;8.88;3.72;;;;;;;12.90;100.00;101717.50;5050123;28;20025;-74
2022/08/21 04:39:24;;;;;;;13.30;4.25;;;;;;;12.91;100.00;101718.34;5050479;28;20025;-75
2022/08/21 04:41:50;;;;;;;13.32;3.72;;;;;;;12.90;100.00;101720.19;5049257;28;20185;-75
2022/08/21 04:44:15;;;;;;;14.77;3.85;;;;;;;12.92;100.00;101723.56;5050387;28;20040;-74
2022/08/21 04:46:40;;;;;;;22.10;5.28;;;;;;;12.95;100.00;101717.09;5050590;28;20060;-74
2022/08/21 04:49:07;;;;;;;14.45;4.35;;;;;;;12.96;100.00;101714.31;5049860;28;20054;-76
2022/08/21 04:51:36;;;;;;;22.13;4.80;;;;;;;12.99;100.00;101723.88;5050748;28;20037;-73
2022/08/21 04:54:16;;;;;;;18.67;5.65;;;;;;;13.08;100.00;101725.75;5048692;28;20017;-75
2022/08/21 04:56:45;;;;;;;13.55;4.85;;;;;;;13.09;100.00;101726.59;5050591;28;20044;-75
2022/08/21 04:59:16;;;;;;;20.77;5.63;;;;;;;13.13;100.00;101726.19;5050074;28;20450;-75
2022/08/21 05:01:43;;;;;;;19.08;5.60;;;;;;;13.17;100.00;101730.28;5050252;28;20033;-74
2022/08/21 05:04:12;;;;;;;16.90;6.05;;;;;;;13.23;100.00;101724.41;5050604;28;20055;-75
2022/08/21 05:06:40;;;;;;;27.05;5.90;;;;;;;13.32;100.00;101722.75;5050232;28;20089;-75
2022/08/21 05:09:09;;;;;;;20.67;6.00;;;;;;;13.38;100.00;101724.91;5050092;28;20135;-76
2022/08/21 05:11:35;;;;;;;20.67;5.93;;;;;;;13.44;100.00;101725.34;5050364;28;20032;-75
2022/08/21 05:14:00;;;;;;;24.52;6.25;;;;;;;13.53;100.00;101719.19;5048442;28;20037;-76
2022/08/21 05:16:26;;;;;;;20.05;6.88;;;;;;;13.63;100.00;101724.53;5050000;28;20040;-74
2022/08/21 05:18:51;;;;;;;17.45;5.68;;;;;;;13.65;100.00;101723.44;5050149;28;20017;-76
2022/08/21 05:21:17;;;;;;;17.38;5.60;;;;;;;13.73;100.00;101720.06;5049914;28;20501;-75
2022/08/21 05:23:42;;;;;;;21.73;6.28;;;;;;;13.78;100.00;101720.50;5049918;28;20359;-76
2022/08/21 05:26:08;;;;;;;20.13;5.35;;;;;;;13.84;100.00;101722.63;5050136;28;20063;-75
2022/08/21 05:28:33;;;;;;;18.80;6.18;;;;;;;13.87;100.00;101725.00;5048283;28;20104;-76
2022/08/21 05:30:59;;;;;;;19.90;6.22;;;;;;;13.90;100.00;101722.06;5050241;28;20478;-75
2022/08/21 05:33:24;;;;;;;19.73;5.88;;;;;;;13.95;100.00;101726.16;5049875;28;20025;-75
2022/08/21 05:35:52;;;;;;;24.70;6.38;;;;;;;14.00;100.00;101729.25;5050087;28;20061;-75
2022/08/21 05:38:19;;;;;;;23.50;5.55;;;;;;;14.06;100.00;101720.66;5050101;28;20025;-75
2022/08/21 05:40:45;;;;;;;15.32;5.55;;;;;;;14.08;100.00;101722.22;5048028;28;20069;-74
2022/08/21 05:43:10;;;;;;;17.42;5.65;;;;;;;14.17;100.00;101719.69;5049728;28;20021;-75
2022/08/21 05:45:36;;;;;;;17.73;5.38;;;;;;;14.21;100.00;101726.41;5048207;28;20032;-75
2022/08/21 05:48:09;;;;;;;27.70;5.85;;;;;;;14.25;100.00;101723.31;5053368;28;20037;-75
2022/08/21 05:50:36;;;;;;;23.92;6.20;;;;;;;14.29;100.00;101719.38;5054151;28;20025;-76
2022/08/21 05:53:01;;;;;;;15.38;4.85;;;;;;;14.35;100.00;101719.81;5053869;28;20069;-74
2022/08/21 05:55:26;;;;;;;19.90;5.18;;;;;;;14.37;100.00;101721.34;5052004;28;20062;-74
2022/08/21 05:57:52;;;;;;;19.05;5.28;;;;;;;14.41;100.00;101729.94;5053655;28;20029;-74
2022/08/21 06:00:18;;;;;;;18.42;5.15;;;;;;;14.46;100.00;101733.03;5053503;28;20037;-74
2022/08/21 06:02:43;;;;;;;17.60;5.30;;;;;;;14.50;100.00;101729.09;5052468;28;20029;-74
2022/08/21 06:05:08;;;;;;;13.80;5.05;;;;;;;14.56;100.00;101728.50;5053640;28;20049;-74
2022/08/21 06:07:34;;;;;;;19.88;5.43;;;;;;;14.62;100.00;101729.81;5053305;28;20108;-75
2022/08/21 06:10:00;;;;;;;19.00;5.32;;;;;;;14.70;100.00;101731.75;5053640;28;20083;-75
2022/08/21 06:12:25;;;;;;;21.05;5.32;;;;;;;14.75;100.00;101726.78;5053293;28;20082;-74
2022/08/21 06:14:51;;;;;;;13.35;5.07;;;;;;;14.83;100.00;101736.81;5053289;28;20123;-75
2022/08/21 06:17:17;;;;;;;15.38;4.70;;;;;;;14.90;100.00;101727.19;5053276;28;20407;-74
2022/08/21 06:19:43;;;;;;;19.08;4.70;;;;;;;14.99;100.00;101723.66;5053692;28;20029;-75
2022/08/21 06:22:08;;;;;;;16.27;5.10;;;;;;;15.06;100.00;101721.22;5051917;28;20114;-77
2022/08/21 06:24:34;;;;;;;15.82;4.88;;;;;;;15.15;100.00;101715.81;5051770;28;20471;-76
2022/08/21 06:27:07;;;;;;;23.27;5.55;;;;;;;15.23;100.00;101717.75;5052923;28;20104;-75
2022/08/21 06:29:34;;;;;;;17.63;5.32;;;;;;;15.30;100.00;101716.19;5052881;28;20082;-74
2022/08/21 06:31:59;;;;;;;14.10;4.63;;;;;;;15.41;100.00;101720.50;5053081;28;20430;-74
2022/08/21 06:34:25;;;;;;;14.63;4.63;;;;;;;15.50;100.00;101718.75;5052904;28;20197;-75
2022/08/21 06:36:51;;;;;;;19.95;4.97;;;;;;;15.58;100.00;101715.31;5053415;28;20056;-74
2022/08/21 06:39:16;;;;;;;12.00;4.40;;;;;;;15.65;100.00;101722.59;5051549;28;20430;-74
2022/08/21 06:41:41;;;;;;;13.77;4.45;;;;;;;15.75;100.00;101727.06;5052879;28;20036;-73
2022/08/21 06:44:07;;;;;;;14.63;4.00;;;;;;;15.83;100.00;101725.34;5052897;28;20037;-74
2022/08/21 06:46:33;;;;;;;17.17;4.53;;;;;;;15.91;100.00;101732.63;5052273;28;20455;-74
2022/08/21 06:48:59;;;;;;;21.10;5.13;;;;;;;16.03;100.00;101725.19;5052802;28;20407;-74
2022/08/21 06:51:25;;;;;;;19.52;4.05;;;;;;;16.19;100.00;101724.50;5051190;28;20083;-75
2022/08/21 06:53:52;;;;;;;14.00;4.07;;;;;;;16.40;100.00;101726.84;5052852;28;20037;-75
2022/08/21 06:56:18;;;;;;;13.27;4.20;;;;;;;16.65;100.00;101722.50;5052659;28;20071;-74
2022/08/21 06:58:44;;;;;;;17.77;3.95;;;;;;;16.95;100.00;101725.75;5051966;28;20052;-74
2022/08/21 07:01:09;;;;;;;17.13;5.03;;;;;;;17.24;100.00;101719.16;5052880;28;20056;-74
2022/08/21 07:03:37;;;;;;;15.32;4.15;;;;;;;17.43;100.00;101723.44;5052528;28;20057;-74
2022/08/21 07:06:05;;;;;;;10.93;3.38;;;;;;;17.44;100.00;101719.75;5052106;28;20021;-74
2022/08/21 07:08:30;;;;;;;17.33;3.60;;;;;;;17.43;100.00;101715.38;5052196;28;20029;-74
2022/08/21 07:10:58;;;;;;;11.75;3.70;;;;;;;17.42;100.00;101721.75;5052349;28;20039;-75
2022/08/21 07:13:23;;;;;;;14.43;3.28;;;;;;;17.44;100.00;101722.44;5052314;28;20032;-74
2022/08/21 07:15:48;;;;;;;12.30;3.45;;;;;;;17.68;100.00;101721.66;5052390;28;20029;-74
2022/08/21 07:18:14;;;;;;;10.52;3.40;;;;;;;17.95;100.00;101730.50;5052228;28;20021;-75
2022/08/21 07:20:41;;;;;;;13.00;3.53;;;;;;;18.28;100.00;101728.66;5052025;28;20124;-75
2022/08/21 07:23:11;;;;;;;12.68;3.88;;;;;;;18.45;100.00;101726.81;5052250;28;20079;-76
2022/08/21 07:25:37;;;;;;;11.57;3.63;;;;;;;18.54;100.00;101729.50;5051853;28;20075;-76
2022/08/21 07:28:02;;;;;;;18.52;3.70;;;;;;;18.57;100.00;101726.44;5051997;28;20029;-75
2022/08/21 07:30:28;;;;;;;11.00;3.50;;;;;;;18.60;100.00;101726.97;5052401;28;20025;-77
2022/08/21 07:32:54;;;;;;;17.33;4.05;;;;;;;18.73;100.00;101722.91;5052228;28;20039;-77
2022/08/21 07:35:20;;;;;;;9.40;2.88;;;;;;;19.00;100.00;101724.38;5052312;28;20392;-77
2022/08/21 07:37:46;;;;;;;11.57;3.20;;;;;;;19.20;100.00;101717.56;5052167;28;20025;-78
2022/08/21 07:40:12;;;;;;;16.55;3.42;;;;;;;19.29;100.00;101726.47;5050857;28;20328;-78
2022/08/21 07:42:42;;;;;;;14.23;3.20;;;;;;;19.37;100.00;101722.88;5051856;28;20494;-79
2022/08/21 07:45:08;;;;;;;15.80;3.00;;;;;;;19.46;100.00;101719.13;5051045;28;20036;-77
2022/08/21 07:47:34;;;;;;;15.30;3.75;;;;;;;19.48;98.41;101730.59;5053073;28;20044;-77
2022/08/21 07:49:59;;;;;;;10.55;3.10;;;;;;;19.47;97.00;101720.81;5055979;28;20040;-78
2022/08/21 07:52:24;;;;;;;10.90;2.97;;;;;;;19.43;99.65;101719.47;5056503;28;20085;-79
2022/08/21 07:54:50;;;;;;;15.73;3.47;;;;;;;19.48;98.27;101727.91;5051567;28;20197;-78
2022/08/21 07:57:16;;;;;;;11.55;3.20;;;;;;;19.53;97.59;101719.28;5051690;28;20143;-78
2022/08/21 07:59:41;;;;;;;10.73;2.70;;;;;;;19.71;99.06;101725.22;5050248;28;20028;-79
2022/08/21 08:02:06;;;;;;;13.93;2.75;;;;;;;20.01;98.99;101724.56;5051850;28;20052;-79
2022/08/21 08:04:32;;;;;;;10.30;2.75;;;;;;;20.39;96.93;101719.19;5051270;28;20403;-79
2022/08/21 08:06:57;;;;;;;15.30;2.92;;;;;;;20.58;93.30;101718.66;5051132;28;20192;-76
2022/08/21 08:09:23;;;;;;;11.00;3.10;;;;;;;20.83;91.83;101723.03;5049115;28;20045;-77
2022/08/21 08:11:48;;;;;;;13.73;2.80;;;;;;;21.06;90.48;101725.63;5050831;28;20025;-79
2022/08/21 08:14:15;;;;;;;16.25;2.88;;;;;;;21.18;86.36;101720.59;5051049;28;20033;-79
2022/08/21 08:16:40;;;;;;;14.57;2.65;;;;;;;21.28;85.57;101708.44;5051297;28;20106;-79
2022/08/21 08:19:05;;;;;;;13.10;2.92;;;;;;;21.47;85.54;101723.25;5050617;28;20041;-77
2022/08/21 08:21:32;;;;;;;7.80;2.40;;;;;;;21.56;84.39;101723.19;5049422;28;20040;-79
2022/08/21 08:23:57;;;;;;;10.05;2.78;;;;;;;21.48;81.52;101713.25;5050490;28;20021;-77
2022/08/21 08:26:23;;;;;;;8.95;2.72;;;;;;;21.10;82.17;101711.53;5050486;28;20129;-79
2022/08/21 08:28:48;;;;;;;13.52;3.00;;;;;;;20.66;85.42;101719.63;5050749;28;20063;-77
2022/08/21 08:31:14;;;;;;;10.05;2.63;;;;;;;20.31;88.60;101719.28;5050870;28;20065;-76
2022/08/21 08:33:39;;;;;;;12.95;2.78;;;;;;;19.92;88.42;101723.78;5050723;28;20036;-77
2022/08/21 08:36:11;;;;;;;14.52;3.55;;;;;;;19.73;90.59;101727.75;5050862;28;20052;-79
2022/08/21 08:38:37;;;;;;;14.10;2.60;;;;;;;19.53;92.05;101717.41;5050860;28;20033;-77
2022/08/21 08:41:18;;;;;;;13.60;3.30;;;;;;;19.42;91.98;101714.25;5049483;28;20103;-78
2022/08/21 08:43:53;;;;;;;13.18;2.80;;;;;;;19.36;93.17;101713.97;5051485;28;20112;-82
2022/08/21 08:46:30;;;;;;;13.18;2.47;;;;;;;19.31;91.21;101713.63;5050713;28;20094;-80
2022/08/21 08:49:03;;;;;;;7.30;2.20;;;;;;;19.42;89.67;101712.38;5051039;28;20033;-77
2022/08/21 08:51:54;;;;;;;8.25;2.05;;;;;;;19.61;88.11;101711.13;5051006;28;20083;-78
2022/08/21 08:54:35;;;;;;;7.43;1.75;;;;;;;19.91;84.95;101711.28;5049408;28;20017;-79
2022/08/21 08:57:02;;;;;;;6.07;1.90;;;;;;;20.61;80.54;101712.88;5051002;28;20068;-80
2022/08/21 08:59:39;;;;;;;6.32;1.70;;;;;;;21.46;77.84;101708.03;5049432;28;20048;-82
2022/08/21 09:02:05;;;;;;;6.10;2.13;;;;;;;22.38;73.27;101712.94;5050968;28;20455;-76
2022/08/21 09:04:31;;;;;;;7.80;1.95;;;;;;;23.35;65.42;101713.97;5048814;28;20358;-76
2022/08/21 09:07:24;;;;;;;9.13;1.80;;;;;;;24.34;62.26;101711.66;5050542;28;20029;-75
2022/08/21 09:10:18;;;;;;;8.27;1.90;;;;;;;25.17;56.95;101714.66;5050678;28;20021;-79
2022/08/21 09:12:55;;;;;;;10.25;2.03;;;;;;;25.65;53.74;101718.84;5050550;28;20176;-80
2022/08/21 09:15:29;;;;;;;8.88;1.98;;;;;;;26.19;51.41;101713.06;5050448;28;20403;-78
2022/08/21 09:18:16;;;;;;;9.05;2.22;;;;;;;26.85;49.63;101716.25;5050736;28;20029;-80
2022/08/21 09:21:23;;;;;;;6.32;2.05;;;;;;;27.05;46.44;101719.59;5050521;28;20029;-76
2022/08/21 09:24:25;;;;;;;10.60;2.15;;;;;;;26.86;46.60;101721.47;4973348;28;20145;-77
2022/08/21 09:27:01;;;;;;;12.45;2.47;;;;;;;27.39;47.78;101720.03;5054093;28;20075;-77
2022/08/21 09:29:31;;;;;;;9.30;1.65;;;;;;;28.29;42.01;101718.28;5054940;28;20040;-78
2022/08/21 09:31:56;;;;;;;6.10;1.83;;;;;;;28.84;41.72;101716.25;5054227;28;20017;-77
2022/08/21 09:34:29;;;;;;;9.75;2.38;;;;;;;28.76;41.20;101711.16;5053855;28;20455;-76
2022/08/21 09:36:55;;;;;;;8.07;1.95;;;;;;;29.06;41.13;101721.13;5054066;28;20504;-78
2022/08/21 09:39:32;;;;;;;7.45;2.10;;;;;;;29.48;42.82;101715.41;5054312;28;20158;-79
2022/08/21 09:42:04;;;;;;;7.38;1.92;;;;;;;29.45;40.50;101722.19;5055593;28;20017;-79
2022/08/21 09:44:33;;;;;;;11.18;2.00;;;;;;;28.42;42.21;101716.38;5054669;28;20020;-78
2022/08/21 09:46:59;;;;;;;8.70;2.38;;;;;;;28.29;44.92;101712.81;5053550;28;20437;-78
2022/08/21 09:49:36;;;;;;;9.27;2.13;;;;;;;28.42;42.27;101709.00;5054031;28;20438;-79
2022/08/21 09:52:03;;;;;;;7.38;2.17;;;;;;;28.63;42.13;101709.50;5054042;28;20124;-79
2022/08/21 09:54:40;;;;;;;5.82;1.80;;;;;;;28.46;41.66;101710.19;5053822;28;20108;-78
2022/08/21 09:59:53;;;;;;;6.60;2.00;;;;;;;29.31;39.63;101716.19;5053806;28;20202;-77
2022/08/21 10:02:26;;;;;;;6.30;1.70;;;;;;;28.93;40.95;101711.25;5053870;28;20032;-78
2022/08/21 10:04:58;;;;;;;6.97;2.15;;;;;;;27.53;42.33;101706.19;5053509;28;20032;-76
2022/08/21 10:07:26;;;;;;;5.93;2.15;;;;;;;26.24;44.62;101709.66;5051930;28;20036;-75
2022/08/21 10:10:14;;;;;;;6.28;1.98;;;;;;;24.59;49.39;101709.16;5053541;28;20036;-76
2022/08/21 10:12:39;;;;;;;8.73;1.90;;;;;;;23.36;53.45;101710.19;5053771;28;20419;-81
2022/08/21 10:15:24;;;;;;;8.73;2.40;;;;;;;22.47;60.81;101715.31;5053786;28;20032;-74
2022/08/21 10:18:04;;;;;;;9.20;2.05;;;;;;;21.96;64.28;101723.56;5053293;28;20497;-76
2022/08/21 10:20:53;;;;;;;8.88;2.05;;;;;;;21.83;64.90;101721.59;5053808;28;20044;-78
2022/08/21 10:23:57;;;;;;;11.27;2.30;;;;;;;22.46;64.26;101727.19;5053835;28;20028;-74
2022/08/21 10:26:43;;;;;;;10.18;2.60;;;;;;;24.46;58.19;101713.53;5052787;28;20044;-74
2022/08/21 10:29:32;;;;;;;6.28;2.10;;;;;;;26.47;50.75;101711.75;5053341;28;20105;-74
2022/08/21 10:32:16;;;;;;;9.73;2.22;;;;;;;26.76;46.23;101712.16;5053194;28;20511;-73
2022/08/21 10:35:08;;;;;;;8.60;2.22;;;;;;;25.99;50.76;101716.78;5052230;28;20024;-74
2022/08/21 10:37:45;;;;;;;7.28;2.10;;;;;;;25.70;50.20;101712.75;5053562;28;20048;-75
2022/08/21 10:40:26;;;;;;;8.88;2.13;;;;;;;26.14;50.93;101713.75;5053300;28;20063;-74
2022/08/21 10:43:10;;;;;;;12.45;2.83;;;;;;;26.19;50.01;101713.06;5053044;28;20070;-74
2022/08/21 10:46:06;;;;;;;8.07;2.38;;;;;;;25.99;50.73;101722.25;5052748;28;20051;-75
2022/08/21 10:49:03;;;;;;;11.18;2.40;;;;;;;24.69;53.39;101722.31;5053052;28;20021;-75
2022/08/21 10:51:34;;;;;;;7.03;2.17;;;;;;;24.14;58.17;101717.94;5044713;28;20159;-76
2022/08/21 10:54:09;;;;;;;8.95;2.30;;;;;;;23.85;59.83;101725.41;5052313;28;20037;-75
2022/08/21 10:56:38;;;;;;;8.68;2.10;;;;;;;24.77;57.64;101714.78;5052859;28;20112;-75
2022/08/21 10:59:22;;;;;;;11.45;2.17;;;;;;;25.59;51.83;101722.47;5052524;28;20427;-73
2022/08/21 11:02:08;;;;;;;8.57;2.33;;;;;;;26.02;51.50;101716.34;5053003;28;20063;-75
2022/08/21 11:04:52;;;;;;;9.85;2.33;;;;;;;25.22;53.46;101711.28;5052356;28;20348;-75
2022/08/21 11:07:36;;;;;;;11.30;2.35;;;;;;;24.24;56.18;101718.38;5052904;28;20067;-76
2022/08/21 11:10:10;;;;;;;11.35;2.50;;;;;;;23.42;59.59;101726.53;5052694;28;20108;-76
2022/08/21 11:12:43;;;;;;;14.18;2.72;;;;;;;23.24;60.97;101723.50;5052437;28;20028;-76
2022/08/21 11:15:43;;;;;;;7.53;2.00;;;;;;;23.25;60.64;101719.78;5052541;28;20447;-75
2022/08/21 11:18:24;;;;;;;9.80;2.15;;;;;;;22.98;59.94;101729.63;5052250;28;20029;-75
2022/08/21 11:20:49;;;;;;;8.82;2.10;;;;;;;23.17;60.74;101718.06;5052571;28;20037;-75
2022/08/21 11:23:23;;;;;;;8.23;2.10;;;;;;;23.56;60.39;101723.88;5050663;28;20095;-74
2022/08/21 11:26:11;;;;;;;14.52;2.15;;;;;;;23.86;60.27;101729.81;5050703;28;20138;-75